createdAt,value
2022-08-26T00:10:45.181Z,6.20
2022-08-26T00:40:53.952Z,7.03
2022-08-26T01:10:59.683Z,7.20
2022-08-26T01:41:04.902Z,6.53
2022-08-26T02:11:21.305Z,6.80
2022-08-26T02:41:25.581Z,8.25
2022-08-26T03:11:33.245Z,7.05
2022-08-26T03:41:38.137Z,9.20
2022-08-26T04:11:44.023Z,8.70
2022-08-26T04:41:50.165Z,14.43
2022-08-26T05:11:56.369Z,57.78
2022-08-26T05:42:00.843Z,86.47
2022-08-26T06:12:07.187Z,88.40
2022-08-26T06:42:11.982Z,79.72
2022-08-26T07:12:16.690Z,83.97
2022-08-26T07:42:21.680Z,77.22
2022-08-26T08:12:26.135Z,65.30
2022-08-26T08:42:39.601Z,58.00
2022-08-26T09:12:44.190Z,55.22
2022-08-26T09:42:48.435Z,47.85
2022-08-26T10:12:59.293Z,34.13
2022-08-26T10:43:11.461Z,27.38
2022-08-26T11:13:15.804Z,22.27
2022-08-26T11:43:22.838Z,19.42
2022-08-26T12:13:27.718Z,19.13
2022-08-26T12:43:40.836Z,25.52
2022-08-26T13:13:45.753Z,25.40
2022-08-26T13:43:51.524Z,19.17
2022-08-26T14:13:56.068Z,18.40
2022-08-26T14:44:03.194Z,11.98
2022-08-26T15:14:07.713Z,11.05
2022-08-26T15:44:19.664Z,14.35
2022-08-26T16:14:24.481Z,23.33
2022-08-26T16:44:30.759Z,17.60
2022-08-26T17:14:35.160Z,13.18
2022-08-26T17:44:39.707Z,15.10
2022-08-26T18:14:43.905Z,14.57
2022-08-26T18:44:50.957Z,12.88
2022-08-26T19:14:55.197Z,12.40
2022-08-26T19:45:24.946Z,13.38
2022-08-26T20:15:31.094Z,12.48
2022-08-26T20:45:35.405Z,16.77
2022-08-26T21:15:39.716Z,11.93
2022-08-26T21:45:43.944Z,12.10
2022-08-26T22:15:49.047Z,13.18
2022-08-26T22:45:53.856Z,10.63
2022-08-26T23:16:05.792Z,12.50
2022-08-26T23:46:09.982Z,14.90
